sensor_id;sensor_type;location;lat;lon;timestamp;pressure;altitude;pressure_sealevel;temperature;humidity
10881;BME280;5493;48.884;8.338;2022-11-25T00:01:07;100118.16;;;6.36;100.00
10881;BME280;5493;48.884;8.338;2022-11-25T00:03:34;100115.25;;;6.38;100.00
10881;BME280;5493;48.884;8.338;2022-11-25T00:06:09;100115.03;;;6.33;100.00
10881;BME280;5493;48.884;8.338;2022-11-25T00:08:36;100116.09;;;6.38;100.00
10881;BME280;5493;48.884;8.338;2022-11-25T00:11:03;100114.25;;;6.39;100.00
10881;BME280;5493;48.884;8.338;2022-11-25T00:13:30;100107.25;;;6.44;100.00
10881;BME280;5493;48.884;8.338;2022-11-25T00:16:00;100112.81;;;6.36;100.00
10881;BME280;5493;48.884;8.338;2022-11-25T00:18:28;100106.72;;;6.21;100.00
10881;BME280;5493;48.884;8.338;2022-11-25T00:20:55;100113.56;;;6.30;100.00
10881;BME280;5493;48.884;8.338;2022-11-25T00:23:22;100113.56;;;6.30;100.00
10881;BME280;5493;48.884;8.338;2022-11-25T00:25:48;100118.72;;;6.32;100.00
10881;BME280;5493;48.884;8.338;2022-11-25T00:28:15;100113.28;;;6.47;100.00
10881;BME280;5493;48.884;8.338;2022-11-25T00:30:42;100106.81;;;6.34;100.00
10881;BME280;5493;48.884;8.338;2022-11-25T00:33:09;100109.91;;;6.04;100.00
10881;BME280;5493;48.884;8.338;2022-11-25T00:35:37;100106.69;;;5.93;100.00
10881;BME280;5493;48.884;8.338;2022-11-25T00:38:03;100113.22;;;5.63;100.00
10881;BME280;5493;48.884;8.338;2022-11-25T00:40:30;100116.97;;;5.69;100.00
10881;BME280;5493;48.884;8.338;2022-11-25T00:42:56;100117.81;;;6.18;100.00
10881;BME280;5493;48.884;8.338;2022-11-25T00:45:41;100112.22;;;5.64;100.00
10881;BME280;5493;48.884;8.338;2022-11-25T00:48:08;100115.03;;;5.84;100.00
10881;BME280;5493;48.884;8.338;2022-11-25T00:50:34;100114.81;;;6.00;100.00
10881;BME280;5493;48.884;8.338;2022-11-25T00:53:02;100118.00;;;5.89;100.00
10881;BME280;5493;48.884;8.338;2022-11-25T00:55:29;100114.50;;;5.88;100.00
10881;BME280;5493;48.884;8.338;2022-11-25T00:58:15;100118.09;;;6.02;100.00
10881;BME280;5493;48.884;8.338;2022-11-25T01:00:42;100117.00;;;6.18;100.00
10881;BME280;5493;48.884;8.338;2022-11-25T01:03:09;100121.41;;;6.32;100.00
10881;BME280;5493;48.884;8.338;2022-11-25T01:05:36;100117.41;;;6.49;100.00
10881;BME280;5493;48.884;8.338;2022-11-25T01:08:04;100121.94;;;6.55;100.00
10881;BME280;5493;48.884;8.338;2022-11-25T01:10:30;100130.38;;;6.52;100.00
10881;BME280;5493;48.884;8.338;2022-11-25T01:12:57;100131.72;;;6.35;100.00
10881;BME280;5493;48.884;8.338;2022-11-25T01:15:24;100135.66;;;6.39;100.00
10881;BME280;5493;48.884;8.338;2022-11-25T01:17:50;100137.09;;;6.07;100.00
10881;BME280;5493;48.884;8.338;2022-11-25T01:20:17;100135.81;;;5.82;100.00
10881;BME280;5493;48.884;8.338;2022-11-25T01:22:43;100145.59;;;5.89;100.00
10881;BME280;5493;48.884;8.338;2022-11-25T01:25:11;100141.66;;;6.13;100.00
10881;BME280;5493;48.884;8.338;2022-11-25T01:27:38;100146.03;;;5.93;100.00
10881;BME280;5493;48.884;8.338;2022-11-25T01:30:08;100143.31;;;6.14;100.00
10881;BME280;5493;48.884;8.338;2022-11-25T01:32:34;100146.84;;;6.49;100.00
10881;BME280;5493;48.884;8.338;2022-11-25T01:35:01;100159.88;;;6.59;100.00
10881;BME280;5493;48.884;8.338;2022-11-25T01:37:28;100150.03;;;6.31;100.00
10881;BME280;5493;48.884;8.338;2022-11-25T01:39:54;100157.84;;;5.84;100.00
10881;BME280;5493;48.884;8.338;2022-11-25T01:42:27;100153.47;;;5.98;100.00
10881;BME280;5493;48.884;8.338;2022-11-25T01:48:02;100168.03;;;6.44;100.00
10881;BME280;5493;48.884;8.338;2022-11-25T01:50:31;100162.63;;;6.37;100.00
10881;BME280;5493;48.884;8.338;2022-11-25T01:52:59;100160.00;;;6.44;100.00
10881;BME280;5493;48.884;8.338;2022-11-25T01:55:29;100155.66;;;5.87;100.00
10881;BME280;5493;48.884;8.338;2022-11-25T01:58:00;100160.97;;;6.09;100.00
10881;BME280;5493;48.884;8.338;2022-11-25T02:00:28;100156.97;;;6.26;100.00
10881;BME280;5493;48.884;8.338;2022-11-25T02:02:56;100160.81;;;6.44;100.00
10881;BME280;5493;48.884;8.338;2022-11-25T02:05:25;100166.56;;;6.41;100.00
10881;BME280;5493;48.884;8.338;2022-11-25T02:07:56;100156.75;;;6.21;100.00
10881;BME280;5493;48.884;8.338;2022-11-25T02:10:28;100157.47;;;6.36;100.00
10881;BME280;5493;48.884;8.338;2022-11-25T02:12:58;100149.53;;;6.49;100.00
10881;BME280;5493;48.884;8.338;2022-11-25T02:15:25;100137.69;;;6.65;100.00
10881;BME280;5493;48.884;8.338;2022-11-25T02:17:54;100134.72;;;6.53;100.00
10881;BME280;5493;48.884;8.338;2022-11-25T02:20:22;100129.41;;;6.60;100.00
10881;BME280;5493;48.884;8.338;2022-11-25T02:22:58;100134.78;;;6.66;100.00
10881;BME280;5493;48.884;8.338;2022-11-25T02:25:29;100122.13;;;6.88;100.00
10881;BME280;5493;48.884;8.338;2022-11-25T02:28:00;100120.28;;;6.95;100.00
10881;BME280;5493;48.884;8.338;2022-11-25T02:30:27;100128.75;;;6.99;100.00
10881;BME280;5493;48.884;8.338;2022-11-25T02:32:53;100124.88;;;7.01;100.00
10881;BME280;5493;48.884;8.338;2022-11-25T02:35:32;100121.16;;;7.02;100.00
10881;BME280;5493;48.884;8.338;2022-11-25T02:38:05;100116.97;;;6.86;100.00
10881;BME280;5493;48.884;8.338;2022-11-25T02:40:38;100118.75;;;6.73;100.00
10881;BME280;5493;48.884;8.338;2022-11-25T02:43:06;100120.53;;;6.59;100.00
10881;BME280;5493;48.884;8.338;2022-11-25T02:45:40;100119.28;;;6.55;100.00
10881;BME280;5493;48.884;8.338;2022-11-25T02:48:08;100124.63;;;6.55;100.00
10881;BME280;5493;48.884;8.338;2022-11-25T02:50:35;100116.78;;;6.47;100.00
10881;BME280;5493;48.884;8.338;2022-11-25T02:53:02;100117.09;;;6.65;100.00
10881;BME280;5493;48.884;8.338;2022-11-25T02:55:28;100112.88;;;6.50;100.00
10881;BME280;5493;48.884;8.338;2022-11-25T02:57:56;100113.22;;;6.40;100.00
10881;BME280;5493;48.884;8.338;2022-11-25T03:00:23;100114.78;;;6.28;100.00
10881;BME280;5493;48.884;8.338;2022-11-25T03:02:50;100110.81;;;6.17;100.00
10881;BME280;5493;48.884;8.338;2022-11-25T03:05:18;100099.56;;;6.28;100.00
10881;BME280;5493;48.884;8.338;2022-11-25T03:07:45;100101.06;;;6.44;100.00
10881;BME280;5493;48.884;8.338;2022-11-25T03:10:11;100094.50;;;6.40;100.00
10881;BME280;5493;48.884;8.338;2022-11-25T03:12:38;100104.56;;;6.38;100.00
10881;BME280;5493;48.884;8.338;2022-11-25T03:15:07;100110.56;;;6.40;100.00
10881;BME280;5493;48.884;8.338;2022-11-25T03:17:34;100115.69;;;6.41;100.00
10881;BME280;5493;48.884;8.338;2022-11-25T03:20:00;100110.66;;;6.60;100.00
10881;BME280;5493;48.884;8.338;2022-11-25T03:22:27;100101.69;;;6.39;100.00
10881;BME280;5493;48.884;8.338;2022-11-25T03:24:53;100099.94;;;6.60;100.00
10881;BME280;5493;48.884;8.338;2022-11-25T03:27:20;100102.75;;;6.45;100.00
10881;BME280;5493;48.884;8.338;2022-11-25T03:29:46;100112.50;;;6.59;100.00
10881;BME280;5493;48.884;8.338;2022-11-25T03:32:15;100111.88;;;6.23;100.00
10881;BME280;5493;48.884;8.338;2022-11-25T03:34:41;100116.88;;;6.32;100.00
10881;BME280;5493;48.884;8.338;2022-11-25T03:37:08;100117.75;;;6.39;100.00
10881;BME280;5493;48.884;8.338;2022-11-25T03:39:34;100118.63;;;6.47;100.00
10881;BME280;5493;48.884;8.338;2022-11-25T03:42:01;100123.84;;;6.27;100.00
10881;BME280;5493;48.884;8.338;2022-11-25T03:44:28;100120.03;;;6.42;100.00
10881;BME280;5493;48.884;8.338;2022-11-25T03:46:54;100108.50;;;6.42;100.00
10881;BME280;5493;48.884;8.338;2022-11-25T03:49:22;100109.94;;;6.44;100.00
10881;BME280;5493;48.884;8.338;2022-11-25T03:51:49;100107.75;;;6.55;100.00
10881;BME280;5493;48.884;8.338;2022-11-25T03:54:16;100108.13;;;6.52;100.00
10881;BME280;5493;48.884;8.338;2022-11-25T03:56:43;100101.16;;;6.57;100.00
10881;BME280;5493;48.884;8.338;2022-11-25T03:59:10;100095.28;;;6.06;100.00
10881;BME280;5493;48.884;8.338;2022-11-25T04:01:36;100100.47;;;6.08;100.00
10881;BME280;5493;48.884;8.338;2022-11-25T04:04:03;100101.03;;;5.82;100.00
10881;BME280;5493;48.884;8.338;2022-11-25T04:06:31;100100.25;;;6.09;100.00
10881;BME280;5493;48.884;8.338;2022-11-25T04:08:58;100101.94;;;6.17;100.00
10881;BME280;5493;48.884;8.338;2022-11-25T04:11:24;100092.69;;;5.91;100.00
10881;BME280;5493;48.884;8.338;2022-11-25T04:14:12;100093.31;;;5.93;100.00
10881;BME280;5493;48.884;8.338;2022-11-25T04:16:37;100097.28;;;5.76;100.00
10881;BME280;5493;48.884;8.338;2022-11-25T04:19:04;100099.13;;;5.97;100.00
10881;BME280;5493;48.884;8.338;2022-11-25T04:21:32;100094.06;;;6.09;100.00
10881;BME280;5493;48.884;8.338;2022-11-25T04:23:58;100088.03;;;6.00;100.00
10881;BME280;5493;48.884;8.338;2022-11-25T04:26:25;100081.50;;;6.09;100.00
10881;BME280;5493;48.884;8.338;2022-11-25T04:28:51;100072.72;;;5.87;100.00
10881;BME280;5493;48.884;8.338;2022-11-25T04:31:18;100073.78;;;5.93;100.00
10881;BME280;5493;48.884;8.338;2022-11-25T04:33:45;100080.25;;;6.05;100.00
10881;BME280;5493;48.884;8.338;2022-11-25T04:36:11;100074.16;;;6.18;100.00
10881;BME280;5493;48.884;8.338;2022-11-25T04:38:39;100071.75;;;5.95;100.00
10881;BME280;5493;48.884;8.338;2022-11-25T04:41:06;100073.91;;;6.13;100.00
10881;BME280;5493;48.884;8.338;2022-11-25T04:43:32;100069.38;;;5.85;100.00
10881;BME280;5493;48.884;8.338;2022-11-25T04:45:59;100078.03;;;6.15;100.00
10881;BME280;5493;48.884;8.338;2022-11-25T04:48:26;100067.94;;;6.11;100.00
10881;BME280;5493;48.884;8.338;2022-11-25T04:50:53;100073.03;;;6.06;100.00
10881;BME280;5493;48.884;8.338;2022-11-25T04:53:19;100072.78;;;6.28;100.00
10881;BME280;5493;48.884;8.338;2022-11-25T04:55:47;100078.59;;;6.04;100.00
10881;BME280;5493;48.884;8.338;2022-11-25T04:58:14;100082.09;;;6.05;100.00
10881;BME280;5493;48.884;8.338;2022-11-25T05:01:02;100092.53;;;6.27;100.00
10881;BME280;5493;48.884;8.338;2022-11-25T05:03:28;100094.38;;;6.27;100.00
10881;BME280;5493;48.884;8.338;2022-11-25T05:05:54;100102.09;;;6.09;100.00
10881;BME280;5493;48.884;8.338;2022-11-25T05:08:21;100094.94;;;5.88;100.00
10881;BME280;5493;48.884;8.338;2022-11-25T05:10:49;100098.94;;;5.77;100.00
10881;BME280;5493;48.884;8.338;2022-11-25T05:13:15;100105.16;;;6.06;100.00
10881;BME280;5493;48.884;8.338;2022-11-25T05:15:42;100117.28;;;6.02;100.00
10881;BME280;5493;48.884;8.338;2022-11-25T05:18:09;100120.91;;;5.94;100.00
10881;BME280;5493;48.884;8.338;2022-11-25T05:20:35;100124.41;;;5.73;100.00
10881;BME280;5493;48.884;8.338;2022-11-25T05:23:02;100123.59;;;5.52;100.00
10881;BME280;5493;48.884;8.338;2022-11-25T05:25:28;100125.50;;;5.58;100.00
10881;BME280;5493;48.884;8.338;2022-11-25T05:27:56;100133.00;;;5.69;100.00
10881;BME280;5493;48.884;8.338;2022-11-25T05:30:23;100130.44;;;5.39;100.00
10881;BME280;5493;48.884;8.338;2022-11-25T05:32:49;100131.38;;;5.68;100.00
10881;BME280;5493;48.884;8.338;2022-11-25T05:35:16;100132.94;;;5.62;100.00
10881;BME280;5493;48.884;8.338;2022-11-25T05:37:43;100142.47;;;5.86;100.00
10881;BME280;5493;48.884;8.338;2022-11-25T05:40:10;100146.59;;;5.67;100.00
10881;BME280;5493;48.884;8.338;2022-11-25T05:42:37;100153.38;;;5.49;100.00
10881;BME280;5493;48.884;8.338;2022-11-25T05:45:06;100150.25;;;5.24;100.00
10881;BME280;5493;48.884;8.338;2022-11-25T05:47:33;100162.09;;;5.36;100.00
10881;BME280;5493;48.884;8.338;2022-11-25T05:50:00;100160.81;;;5.32;100.00
10881;BME280;5493;48.884;8.338;2022-11-25T05:52:26;100173.84;;;5.56;100.00
10881;BME280;5493;48.884;8.338;2022-11-25T05:54:53;100175.53;;;5.42;100.00
10881;BME280;5493;48.884;8.338;2022-11-25T05:57:19;100188.09;;;5.63;100.00
10881;BME280;5493;48.884;8.338;2022-11-25T05:59:46;100180.91;;;5.42;100.00
10881;BME280;5493;48.884;8.338;2022-11-25T06:02:14;100187.50;;;5.46;100.00
10881;BME280;5493;48.884;8.338;2022-11-25T06:04:40;100195.38;;;5.33;100.00
10881;BME280;5493;48.884;8.338;2022-11-25T06:07:07;100194.16;;;5.36;100.00
10881;BME280;5493;48.884;8.338;2022-11-25T06:09:33;100187.81;;;5.37;100.00
10881;BME280;5493;48.884;8.338;2022-11-25T06:12:00;100186.69;;;5.46;100.00
10881;BME280;5493;48.884;8.338;2022-11-25T06:14:27;100184.97;;;5.60;100.00
10881;BME280;5493;48.884;8.338;2022-11-25T06:16:53;100204.38;;;5.68;100.00
10881;BME280;5493;48.884;8.338;2022-11-25T06:19:21;100195.88;;;5.79;100.00
10881;BME280;5493;48.884;8.338;2022-11-25T06:21:48;100190.31;;;5.96;100.00
10881;BME280;5493;48.884;8.338;2022-11-25T06:24:14;100204.16;;;5.84;100.00
10881;BME280;5493;48.884;8.338;2022-11-25T06:26:41;100204.91;;;5.93;100.00
10881;BME280;5493;48.884;8.338;2022-11-25T06:29:07;100206.06;;;6.12;100.00
10881;BME280;5493;48.884;8.338;2022-11-25T06:31:34;100207.22;;;6.24;100.00
10881;BME280;5493;48.884;8.338;2022-11-25T06:34:00;100201.78;;;6.11;100.00
10881;BME280;5493;48.884;8.338;2022-11-25T06:36:28;100207.28;;;6.09;100.00
10881;BME280;5493;48.884;8.338;2022-11-25T06:38:55;100204.31;;;6.47;100.00
10881;BME280;5493;48.884;8.338;2022-11-25T06:41:22;100214.16;;;6.39;100.00
10881;BME280;5493;48.884;8.338;2022-11-25T06:43:48;100196.50;;;6.52;100.00
10881;BME280;5493;48.884;8.338;2022-11-25T06:46:17;100208.38;;;6.70;100.00
10881;BME280;5493;48.884;8.338;2022-11-25T06:48:44;100228.25;;;6.82;100.00
10881;BME280;5493;48.884;8.338;2022-11-25T06:51:12;100239.00;;;6.89;100.00
10881;BME280;5493;48.884;8.338;2022-11-25T06:53:40;100249.41;;;6.71;100.00
10881;BME280;5493;48.884;8.338;2022-11-25T06:56:10;100242.81;;;6.46;100.00
10881;BME280;5493;48.884;8.338;2022-11-25T06:58:37;100249.94;;;6.60;100.00
10881;BME280;5493;48.884;8.338;2022-11-25T07:01:06;100255.34;;;6.66;100.00
10881;BME280;5493;48.884;8.338;2022-11-25T07:03:34;100248.47;;;6.57;100.00
10881;BME280;5493;48.884;8.338;2022-11-25T07:06:00;100258.81;;;6.60;100.00
10881;BME280;5493;48.884;8.338;2022-11-25T07:08:27;100257.47;;;6.77;100.00
10881;BME280;5493;48.884;8.338;2022-11-25T07:11:01;100258.25;;;6.99;100.00
10881;BME280;5493;48.884;8.338;2022-11-25T07:13:28;100263.19;;;7.30;100.00
10881;BME280;5493;48.884;8.338;2022-11-25T07:15:55;100249.94;;;7.28;100.00
10881;BME280;5493;48.884;8.338;2022-11-25T07:18:22;100249.78;;;7.36;100.00
10881;BME280;5493;48.884;8.338;2022-11-25T07:20:48;100247.84;;;7.24;100.00
10881;BME280;5493;48.884;8.338;2022-11-25T07:23:15;100236.69;;;7.14;100.00
10881;BME280;5493;48.884;8.338;2022-11-25T07:25:41;100230.72;;;7.18;100.00
10881;BME280;5493;48.884;8.338;2022-11-25T07:28:09;100228.13;;;7.38;100.00
10881;BME280;5493;48.884;8.338;2022-11-25T07:30:36;100230.88;;;7.51;100.00
10881;BME280;5493;48.884;8.338;2022-11-25T07:33:02;100223.69;;;7.71;100.00
10881;BME280;5493;48.884;8.338;2022-11-25T07:35:29;100224.78;;;7.90;100.00
10881;BME280;5493;48.884;8.338;2022-11-25T07:37:55;100229.72;;;7.86;100.00
10881;BME280;5493;48.884;8.338;2022-11-25T07:40:22;100234.66;;;7.70;100.00
10881;BME280;5493;48.884;8.338;2022-11-25T07:42:48;100226.19;;;7.73;100.00
10881;BME280;5493;48.884;8.338;2022-11-25T07:45:16;100232.38;;;7.67;100.00
10881;BME280;5493;48.884;8.338;2022-11-25T07:47:43;100240.19;;;7.55;100.00
10881;BME280;5493;48.884;8.338;2022-11-25T07:50:10;100252.53;;;7.56;100.00
10881;BME280;5493;48.884;8.338;2022-11-25T07:52:37;100258.84;;;7.96;100.00
10881;BME280;5493;48.884;8.338;2022-11-25T07:55:05;100266.53;;;8.06;100.00
10881;BME280;5493;48.884;8.338;2022-11-25T07:57:32;100274.16;;;7.96;100.00
10881;BME280;5493;48.884;8.338;2022-11-25T07:59:59;100275.25;;;7.54;100.00
10881;BME280;5493;48.884;8.338;2022-11-25T08:02:27;100278.47;;;7.42;100.00
10881;BME280;5493;48.884;8.338;2022-11-25T08:04:53;100289.63;;;7.39;100.00
10881;BME280;5493;48.884;8.338;2022-11-25T08:07:20;100295.47;;;7.56;100.00
10881;BME280;5493;48.884;8.338;2022-11-25T08:09:46;100295.97;;;7.73;100.00
10881;BME280;5493;48.884;8.338;2022-11-25T08:12:13;100294.13;;;7.73;100.00
10881;BME280;5493;48.884;8.338;2022-11-25T08:14:39;100297.22;;;7.83;100.00
10881;BME280;5493;48.884;8.338;2022-11-25T08:17:06;100288.19;;;7.98;100.00
10881;BME280;5493;48.884;8.338;2022-11-25T08:19:34;100280.81;;;8.26;100.00
10881;BME280;5493;48.884;8.338;2022-11-25T08:22:01;100282.94;;;8.57;100.00
10881;BME280;5493;48.884;8.338;2022-11-25T08:24:27;100280.66;;;8.73;100.00
10881;BME280;5493;48.884;8.338;2022-11-25T08:26:54;100268.88;;;8.81;100.00
10881;BME280;5493;48.884;8.338;2022-11-25T08:29:23;100271.75;;;8.99;100.00
10881;BME280;5493;48.884;8.338;2022-11-25T08:31:49;100273.00;;;8.97;100.00
10881;BME280;5493;48.884;8.338;2022-11-25T08:34:18;100267.13;;;9.19;100.00
10881;BME280;5493;48.884;8.338;2022-11-25T08:36:46;100283.50;;;9.18;100.00
10881;BME280;5493;48.884;8.338;2022-11-25T08:39:13;100281.00;;;9.29;100.00
10881;BME280;5493;48.884;8.338;2022-11-25T08:41:39;100288.00;;;9.30;100.00
10881;BME280;5493;48.884;8.338;2022-11-25T08:44:07;100278.91;;;9.31;100.00
10881;BME280;5493;48.884;8.338;2022-11-25T08:46:35;100288.38;;;9.47;100.00
10881;BME280;5493;48.884;8.338;2022-11-25T08:49:05;100280.44;;;9.59;100.00
10881;BME280;5493;48.884;8.338;2022-11-25T08:51:34;100283.28;;;9.26;100.00
10881;BME280;5493;48.884;8.338;2022-11-25T08:54:03;100286.69;;;9.53;100.00
10881;BME280;5493;48.884;8.338;2022-11-25T08:56:31;100286.69;;;9.53;100.00
10881;BME280;5493;48.884;8.338;2022-11-25T08:58:57;100294.00;;;9.39;100.00
10881;BME280;5493;48.884;8.338;2022-11-25T09:01:24;100284.63;;;9.55;100.00
10881;BME280;5493;48.884;8.338;2022-11-25T09:03:53;100290.25;;;9.47;100.00
10881;BME280;5493;48.884;8.338;2022-11-25T09:06:21;100292.38;;;9.25;100.00
10881;BME280;5493;48.884;8.338;2022-11-25T09:08:47;100298.38;;;9.20;100.00
10881;BME280;5493;48.884;8.338;2022-11-25T09:11:16;100305.81;;;9.31;100.00
10881;BME280;5493;48.884;8.338;2022-11-25T09:13:42;100311.16;;;9.51;100.00
10881;BME280;5493;48.884;8.338;2022-11-25T09:16:09;100325.78;;;9.68;100.00
10881;BME280;5493;48.884;8.338;2022-11-25T09:18:35;100351.16;;;8.95;100.00
10881;BME280;5493;48.884;8.338;2022-11-25T09:21:06;100356.13;;;9.18;100.00
10881;BME280;5493;48.884;8.338;2022-11-25T09:23:34;100357.59;;;9.01;100.00
10881;BME280;5493;48.884;8.338;2022-11-25T09:26:00;100369.38;;;9.06;100.00
10881;BME280;5493;48.884;8.338;2022-11-25T09:28:28;100373.50;;;9.02;100.00
10881;BME280;5493;48.884;8.338;2022-11-25T09:30:55;100366.47;;;8.75;100.00
10881;BME280;5493;48.884;8.338;2022-11-25T09:33:22;100361.31;;;9.06;100.00
10881;BME280;5493;48.884;8.338;2022-11-25T09:35:48;100379.91;;;8.88;100.00
10881;BME280;5493;48.884;8.338;2022-11-25T09:38:15;100389.22;;;9.12;100.00
10881;BME280;5493;48.884;8.338;2022-11-25T09:40:47;100389.81;;;9.33;100.00
10881;BME280;5493;48.884;8.338;2022-11-25T09:43:30;100386.75;;;9.10;100.00
10881;BME280;5493;48.884;8.338;2022-11-25T09:46:35;100385.50;;;9.13;100.00
10881;BME280;5493;48.884;8.338;2022-11-25T09:49:14;100386.53;;;9.18;100.00
10881;BME280;5493;48.884;8.338;2022-11-25T09:51:54;100379.88;;;9.47;100.00
10881;BME280;5493;48.884;8.338;2022-11-25T09:54:25;100383.81;;;9.51;100.00
10881;BME280;5493;48.884;8.338;2022-11-25T09:56:59;100389.19;;;9.58;100.00
10881;BME280;5493;48.884;8.338;2022-11-25T09:59:32;100383.41;;;9.48;100.00
10881;BME280;5493;48.884;8.338;2022-11-25T10:02:09;100387.28;;;9.71;100.00
10881;BME280;5493;48.884;8.338;2022-11-25T10:04:43;100387.66;;;9.81;100.00
10881;BME280;5493;48.884;8.338;2022-11-25T10:07:17;100398.47;;;9.55;100.00
10881;BME280;5493;48.884;8.338;2022-11-25T10:09:46;100400.13;;;9.69;100.00
10881;BME280;5493;48.884;8.338;2022-11-25T10:12:18;100405.91;;;9.66;100.00
10881;BME280;5493;48.884;8.338;2022-11-25T10:14:51;100405.06;;;9.79;100.00
10881;BME280;5493;48.884;8.338;2022-11-25T10:17:26;100403.63;;;9.83;100.00
10881;BME280;5493;48.884;8.338;2022-11-25T10:20:00;100398.03;;;9.71;100.00
10881;BME280;5493;48.884;8.338;2022-11-25T10:22:31;100399.06;;;9.77;100.00
10881;BME280;5493;48.884;8.338;2022-11-25T10:25:01;100402.56;;;9.91;100.00
10881;BME280;5493;48.884;8.338;2022-11-25T10:27:35;100409.75;;;10.03;100.00
10881;BME280;5493;48.884;8.338;2022-11-25T10:30:12;100408.78;;;9.91;100.00
10881;BME280;5493;48.884;8.338;2022-11-25T10:32:45;100416.91;;;9.71;100.00
10881;BME280;5493;48.884;8.338;2022-11-25T10:35:22;100418.16;;;9.69;100.00
10881;BME280;5493;48.884;8.338;2022-11-25T10:37:51;100420.63;;;9.64;100.00
10881;BME280;5493;48.884;8.338;2022-11-25T10:40:20;100420.66;;;9.57;100.00
10881;BME280;5493;48.884;8.338;2022-11-25T10:42:47;100412.75;;;9.75;100.00
10881;BME280;5493;48.884;8.338;2022-11-25T10:45:14;100416.69;;;9.66;100.00
10881;BME280;5493;48.884;8.338;2022-11-25T10:47:52;100414.38;;;9.83;100.00
10881;BME280;5493;48.884;8.338;2022-11-25T10:50:28;100413.53;;;9.89;100.00
10881;BME280;5493;48.884;8.338;2022-11-25T10:53:00;100412.50;;;9.77;100.00
10881;BME280;5493;48.884;8.338;2022-11-25T10:55:29;100423.50;;;9.75;100.00
10881;BME280;5493;48.884;8.338;2022-11-25T10:57:56;100427.41;;;9.86;100.00
10881;BME280;5493;48.884;8.338;2022-11-25T11:00:26;100433.44;;;9.81;100.00
10881;BME280;5493;48.884;8.338;2022-11-25T11:02:55;100439.44;;;9.77;100.00
10881;BME280;5493;48.884;8.338;2022-11-25T11:05:24;100439.25;;;9.72;100.00
10881;BME280;5493;48.884;8.338;2022-11-25T11:08:08;100446.94;;;9.62;100.00
10881;BME280;5493;48.884;8.338;2022-11-25T11:10:35;100449.63;;;9.55;100.00
10881;BME280;5493;48.884;8.338;2022-11-25T11:13:04;100454.59;;;9.65;100.00
10881;BME280;5493;48.884;8.338;2022-11-25T11:15:32;100449.63;;;9.62;100.00
10881;BME280;5493;48.884;8.338;2022-11-25T11:18:22;100447.13;;;9.80;100.00
10881;BME280;5493;48.884;8.338;2022-11-25T11:20:51;100448.16;;;9.79;100.00
10881;BME280;5493;48.884;8.338;2022-11-25T11:23:19;100454.81;;;9.50;100.00
10881;BME280;5493;48.884;8.338;2022-11-25T11:25:54;100449.81;;;9.80;100.00
10881;BME280;5493;48.884;8.338;2022-11-25T11:28:29;100442.75;;;9.85;100.00
10881;BME280;5493;48.884;8.338;2022-11-25T11:31:00;100448.91;;;9.99;100.00
10881;BME280;5493;48.884;8.338;2022-11-25T11:33:33;100445.16;;;10.07;100.00
10881;BME280;5493;48.884;8.338;2022-11-25T11:36:10;100446.63;;;10.16;100.00
10881;BME280;5493;48.884;8.338;2022-11-25T11:38:46;100445.78;;;10.22;100.00
10881;BME280;5493;48.884;8.338;2022-11-25T11:41:29;100444.72;;;10.29;100.00
10881;BME280;5493;48.884;8.338;2022-11-25T11:44:08;100451.28;;;10.40;100.00
10881;BME280;5493;48.884;8.338;2022-11-25T11:46:48;100449.53;;;10.59;100.00
10881;BME280;5493;48.884;8.338;2022-11-25T11:49:33;100444.59;;;10.56;100.00
10881;BME280;5493;48.884;8.338;2022-11-25T11:52:08;100447.66;;;10.66;100.00
10881;BME280;5493;48.884;8.338;2022-11-25T11:54:42;100449.16;;;10.55;100.00
10881;BME280;5493;48.884;8.338;2022-11-25T11:57:21;100451.31;;;10.71;100.00
10881;BME280;5493;48.884;8.338;2022-11-25T11:59:53;100453.56;;;10.81;100.00
10881;BME280;5493;48.884;8.338;2022-11-25T12:02:34;100456.03;;;10.82;100.00
10881;BME280;5493;48.884;8.338;2022-11-25T12:05:12;100463.13;;;10.77;100.00
10881;BME280;5493;48.884;8.338;2022-11-25T12:07:46;100465.06;;;11.01;100.00
10881;BME280;5493;48.884;8.338;2022-11-25T12:10:21;100464.41;;;11.06;100.00
10881;BME280;5493;48.884;8.338;2022-11-25T12:12:51;100458.06;;;11.18;100.00
10881;BME280;5493;48.884;8.338;2022-11-25T12:15:21;100472.34;;;11.25;100.00
10881;BME280;5493;48.884;8.338;2022-11-25T12:17:52;100465.97;;;11.20;100.00
10881;BME280;5493;48.884;8.338;2022-11-25T12:20:28;100469.00;;;11.30;100.00
10881;BME280;5493;48.884;8.338;2022-11-25T12:23:00;100472.78;;;11.22;100.00
10881;BME280;5493;48.884;8.338;2022-11-25T12:25:32;100468.72;;;11.38;100.00
10881;BME280;5493;48.884;8.338;2022-11-25T12:28:04;100480.03;;;11.28;100.00
10881;BME280;5493;48.884;8.338;2022-11-25T12:30:35;100479.66;;;11.43;100.00
10881;BME280;5493;48.884;8.338;2022-11-25T12:33:09;100478.47;;;11.39;100.00
10881;BME280;5493;48.884;8.338;2022-11-25T12:35:50;100491.03;;;11.52;100.00
10881;BME280;5493;48.884;8.338;2022-11-25T12:38:24;100482.81;;;11.65;100.00
10881;BME280;5493;48.884;8.338;2022-11-25T12:40:58;100493.03;;;11.63;100.00
10881;BME280;5493;48.884;8.338;2022-11-25T12:43:32;100494.44;;;11.72;100.00
10881;BME280;5493;48.884;8.338;2022-11-25T12:46:18;100502.94;;;11.69;100.00
10881;BME280;5493;48.884;8.338;2022-11-25T12:48:47;100498.88;;;11.60;100.00
10881;BME280;5493;48.884;8.338;2022-11-25T12:51:39;100509.00;;;11.64;100.00
10881;BME280;5493;48.884;8.338;2022-11-25T12:54:17;100515.44;;;11.63;100.00
10881;BME280;5493;48.884;8.338;2022-11-25T12:57:17;100525.03;;;11.59;100.00
10881;BME280;5493;48.884;8.338;2022-11-25T13:00:00;100532.78;;;11.24;100.00
10881;BME280;5493;48.884;8.338;2022-11-25T13:05:26;100529.88;;;11.51;100.00
10881;BME280;5493;48.884;8.338;2022-11-25T13:08:12;100528.56;;;11.60;100.00
10881;BME280;5493;48.884;8.338;2022-11-25T13:10:48;100523.94;;;11.67;100.00
10881;BME280;5493;48.884;8.338;2022-11-25T13:13:32;100533.63;;;11.81;100.00
10881;BME280;5493;48.884;8.338;2022-11-25T13:16:05;100537.53;;;11.85;100.00
10881;BME280;5493;48.884;8.338;2022-11-25T13:18:33;100533.06;;;11.97;100.00